sensor_id;sensor_type;location;lat;lon;timestamp;temperature;humidity
1055;DHT22;516;51.482;7.120;2024-01-25T00:01:29;23.40;1.00
1055;DHT22;516;51.482;7.120;2024-01-25T00:03:54;23.40;1.00
1055;DHT22;516;51.482;7.120;2024-01-25T00:06:20;23.40;1.00
1055;DHT22;516;51.482;7.120;2024-01-25T00:08:46;23.30;1.00
1055;DHT22;516;51.482;7.120;2024-01-25T00:11:12;23.30;1.00
1055;DHT22;516;51.482;7.120;2024-01-25T00:13:38;23.30;1.00
1055;DHT22;516;51.482;7.120;2024-01-25T00:16:04;23.30;1.00
1055;DHT22;516;51.482;7.120;2024-01-25T00:18:30;23.30;1.00
1055;DHT22;516;51.482;7.120;2024-01-25T00:20:56;23.30;1.00
1055;DHT22;516;51.482;7.120;2024-01-25T00:23:21;23.30;1.00
1055;DHT22;516;51.482;7.120;2024-01-25T00:25:47;23.30;1.00
1055;DHT22;516;51.482;7.120;2024-01-25T00:28:13;23.20;1.00
1055;DHT22;516;51.482;7.120;2024-01-25T00:30:39;23.20;1.00
1055;DHT22;516;51.482;7.120;2024-01-25T00:33:05;23.20;1.00
1055;DHT22;516;51.482;7.120;2024-01-25T00:35:31;23.20;1.00
1055;DHT22;516;51.482;7.120;2024-01-25T00:37:57;23.20;1.00
1055;DHT22;516;51.482;7.120;2024-01-25T00:40:23;23.10;1.00
1055;DHT22;516;51.482;7.120;2024-01-25T00:42:49;23.10;1.00
1055;DHT22;516;51.482;7.120;2024-01-25T00:45:19;23.10;1.00
1055;DHT22;516;51.482;7.120;2024-01-25T00:47:45;23.10;1.00
1055;DHT22;516;51.482;7.120;2024-01-25T00:50:11;23.10;1.00
1055;DHT22;516;51.482;7.120;2024-01-25T00:52:38;23.10;1.00
1055;DHT22;516;51.482;7.120;2024-01-25T00:55:04;23.00;1.00
1055;DHT22;516;51.482;7.120;2024-01-25T00:57:30;23.10;1.00
1055;DHT22;516;51.482;7.120;2024-01-25T00:59:56;23.00;1.00
1055;DHT22;516;51.482;7.120;2024-01-25T01:02:22;23.00;1.00
1055;DHT22;516;51.482;7.120;2024-01-25T01:04:48;23.00;1.00
1055;DHT22;516;51.482;7.120;2024-01-25T01:07:14;23.00;1.00
1055;DHT22;516;51.482;7.120;2024-01-25T01:09:40;23.00;1.00
1055;DHT22;516;51.482;7.120;2024-01-25T01:12:07;23.00;1.00
1055;DHT22;516;51.482;7.120;2024-01-25T01:14:33;22.90;1.00
1055;DHT22;516;51.482;7.120;2024-01-25T01:16:58;22.90;1.00
1055;DHT22;516;51.482;7.120;2024-01-25T01:19:24;22.90;1.00
1055;DHT22;516;51.482;7.120;2024-01-25T01:21:49;22.90;1.00
1055;DHT22;516;51.482;7.120;2024-01-25T01:24:15;22.90;1.00
1055;DHT22;516;51.482;7.120;2024-01-25T01:26:41;22.90;1.00
1055;DHT22;516;51.482;7.120;2024-01-25T01:29:09;22.90;1.00
1055;DHT22;516;51.482;7.120;2024-01-25T01:31:35;22.90;1.00
1055;DHT22;516;51.482;7.120;2024-01-25T01:34:01;22.90;1.00
1055;DHT22;516;51.482;7.120;2024-01-25T01:36:26;22.90;1.00
1055;DHT22;516;51.482;7.120;2024-01-25T01:38:52;22.90;1.00
1055;DHT22;516;51.482;7.120;2024-01-25T01:41:18;22.90;1.00
1055;DHT22;516;51.482;7.120;2024-01-25T01:43:43;22.90;1.00
1055;DHT22;516;51.482;7.120;2024-01-25T01:46:35;22.90;1.00
1055;DHT22;516;51.482;7.120;2024-01-25T01:49:04;22.80;1.00
1055;DHT22;516;51.482;7.120;2024-01-25T01:51:31;22.80;1.00
1055;DHT22;516;51.482;7.120;2024-01-25T01:53:57;22.80;1.00
1055;DHT22;516;51.482;7.120;2024-01-25T01:56:24;22.80;1.00
1055;DHT22;516;51.482;7.120;2024-01-25T01:58:52;22.80;1.00
1055;DHT22;516;51.482;7.120;2024-01-25T02:01:19;22.70;1.00
1055;DHT22;516;51.482;7.120;2024-01-25T02:03:45;22.70;1.00
1055;DHT22;516;51.482;7.120;2024-01-25T02:06:11;22.70;1.00
1055;DHT22;516;51.482;7.120;2024-01-25T02:08:37;22.70;1.00
1055;DHT22;516;51.482;7.120;2024-01-25T02:11:03;22.80;1.00
1055;DHT22;516;51.482;7.120;2024-01-25T02:13:28;22.70;1.00
1055;DHT22;516;51.482;7.120;2024-01-25T02:15:54;22.70;1.00
1055;DHT22;516;51.482;7.120;2024-01-25T02:18:19;22.70;1.00
1055;DHT22;516;51.482;7.120;2024-01-25T02:20:45;22.60;1.00
1055;DHT22;516;51.482;7.120;2024-01-25T02:23:11;22.70;1.00
1055;DHT22;516;51.482;7.120;2024-01-25T02:25:36;22.60;1.00
1055;DHT22;516;51.482;7.120;2024-01-25T02:28:02;22.70;1.00
1055;DHT22;516;51.482;7.120;2024-01-25T02:30:28;22.60;1.00
1055;DHT22;516;51.482;7.120;2024-01-25T02:32:53;22.60;1.00
1055;DHT22;516;51.482;7.120;2024-01-25T02:35:20;22.60;1.00
1055;DHT22;516;51.482;7.120;2024-01-25T02:37:45;22.60;1.00
1055;DHT22;516;51.482;7.120;2024-01-25T02:40:12;22.60;1.00
1055;DHT22;516;51.482;7.120;2024-01-25T02:42:37;22.60;1.00
1055;DHT22;516;51.482;7.120;2024-01-25T02:45:03;22.60;1.00
1055;DHT22;516;51.482;7.120;2024-01-25T02:47:29;22.60;1.00
1055;DHT22;516;51.482;7.120;2024-01-25T02:49:55;22.50;1.00
1055;DHT22;516;51.482;7.120;2024-01-25T02:52:20;22.50;1.00
1055;DHT22;516;51.482;7.120;2024-01-25T02:54:46;22.50;1.00
1055;DHT22;516;51.482;7.120;2024-01-25T02:57:12;22.60;1.00
1055;DHT22;516;51.482;7.120;2024-01-25T02:59:37;22.60;1.00
1055;DHT22;516;51.482;7.120;2024-01-25T03:02:03;22.60;1.00
1055;DHT22;516;51.482;7.120;2024-01-25T03:04:29;22.60;1.00
1055;DHT22;516;51.482;7.120;2024-01-25T03:06:54;22.50;1.00
1055;DHT22;516;51.482;7.120;2024-01-25T03:09:20;22.50;1.00
1055;DHT22;516;51.482;7.120;2024-01-25T03:11:46;22.50;1.00
1055;DHT22;516;51.482;7.120;2024-01-25T03:14:12;22.50;1.00
1055;DHT22;516;51.482;7.120;2024-01-25T03:16:38;22.50;1.00
1055;DHT22;516;51.482;7.120;2024-01-25T03:19:03;22.50;1.00
1055;DHT22;516;51.482;7.120;2024-01-25T03:21:29;22.50;1.00
1055;DHT22;516;51.482;7.120;2024-01-25T03:23:55;22.50;1.00
1055;DHT22;516;51.482;7.120;2024-01-25T03:26:20;22.50;1.00
1055;DHT22;516;51.482;7.120;2024-01-25T03:28:46;22.50;1.00
1055;DHT22;516;51.482;7.120;2024-01-25T03:31:12;22.50;1.00
1055;DHT22;516;51.482;7.120;2024-01-25T03:33:37;22.50;1.00
1055;DHT22;516;51.482;7.120;2024-01-25T03:36:04;22.50;1.00
1055;DHT22;516;51.482;7.120;2024-01-25T03:38:30;22.50;1.00
1055;DHT22;516;51.482;7.120;2024-01-25T03:40:55;22.50;1.00
1055;DHT22;516;51.482;7.120;2024-01-25T03:43:25;22.50;1.00
1055;DHT22;516;51.482;7.120;2024-01-25T03:45:51;22.40;1.00
1055;DHT22;516;51.482;7.120;2024-01-25T03:48:17;22.40;1.00
1055;DHT22;516;51.482;7.120;2024-01-25T03:50:43;22.40;1.00
1055;DHT22;516;51.482;7.120;2024-01-25T03:53:08;22.40;1.00
1055;DHT22;516;51.482;7.120;2024-01-25T03:55:34;22.40;1.00
1055;DHT22;516;51.482;7.120;2024-01-25T03:58:00;22.40;1.00
1055;DHT22;516;51.482;7.120;2024-01-25T04:00:25;22.40;1.00
1055;DHT22;516;51.482;7.120;2024-01-25T04:02:51;22.40;1.00
1055;DHT22;516;51.482;7.120;2024-01-25T04:05:17;22.40;1.00
1055;DHT22;516;51.482;7.120;2024-01-25T04:07:42;22.40;1.00
1055;DHT22;516;51.482;7.120;2024-01-25T04:10:08;22.40;1.00
1055;DHT22;516;51.482;7.120;2024-01-25T04:12:34;22.40;1.00
1055;DHT22;516;51.482;7.120;2024-01-25T04:15:00;22.40;1.00
1055;DHT22;516;51.482;7.120;2024-01-25T04:17:26;22.40;1.00
1055;DHT22;516;51.482;7.120;2024-01-25T04:19:51;22.40;1.00
1055;DHT22;516;51.482;7.120;2024-01-25T04:22:17;22.40;1.00
1055;DHT22;516;51.482;7.120;2024-01-25T04:24:43;22.40;1.00
1055;DHT22;516;51.482;7.120;2024-01-25T04:27:10;22.40;1.00
1055;DHT22;516;51.482;7.120;2024-01-25T04:29:42;22.30;1.00
1055;DHT22;516;51.482;7.120;2024-01-25T04:32:08;22.30;1.00
1055;DHT22;516;51.482;7.120;2024-01-25T04:34:35;22.40;1.00
1055;DHT22;516;51.482;7.120;2024-01-25T04:37:01;22.40;1.00
1055;DHT22;516;51.482;7.120;2024-01-25T04:39:27;22.30;1.00
1055;DHT22;516;51.482;7.120;2024-01-25T04:41:53;22.30;1.00
1055;DHT22;516;51.482;7.120;2024-01-25T04:44:19;22.30;1.00
1055;DHT22;516;51.482;7.120;2024-01-25T04:46:44;22.30;1.00
1055;DHT22;516;51.482;7.120;2024-01-25T04:49:10;22.30;1.00
1055;DHT22;516;51.482;7.120;2024-01-25T04:51:36;22.30;1.00
1055;DHT22;516;51.482;7.120;2024-01-25T04:54:02;22.30;1.00
1055;DHT22;516;51.482;7.120;2024-01-25T04:56:28;22.30;1.00
1055;DHT22;516;51.482;7.120;2024-01-25T04:58:54;22.30;1.00
1055;DHT22;516;51.482;7.120;2024-01-25T05:01:19;22.30;1.00
1055;DHT22;516;51.482;7.120;2024-01-25T05:03:45;22.30;1.00
1055;DHT22;516;51.482;7.120;2024-01-25T05:06:11;22.30;1.00
1055;DHT22;516;51.482;7.120;2024-01-25T05:08:37;22.30;1.00
1055;DHT22;516;51.482;7.120;2024-01-25T05:11:02;22.20;1.00
1055;DHT22;516;51.482;7.120;2024-01-25T05:13:28;22.20;1.00
1055;DHT22;516;51.482;7.120;2024-01-25T05:15:54;22.20;1.00
1055;DHT22;516;51.482;7.120;2024-01-25T05:18:20;22.20;1.00
1055;DHT22;516;51.482;7.120;2024-01-25T05:20:45;22.20;1.00
1055;DHT22;516;51.482;7.120;2024-01-25T05:23:11;22.20;1.00
1055;DHT22;516;51.482;7.120;2024-01-25T05:25:37;22.20;1.00
1055;DHT22;516;51.482;7.120;2024-01-25T05:28:03;22.20;1.00
1055;DHT22;516;51.482;7.120;2024-01-25T05:30:29;22.20;1.00
1055;DHT22;516;51.482;7.120;2024-01-25T05:32:55;22.20;1.00
1055;DHT22;516;51.482;7.120;2024-01-25T05:35:21;22.20;1.00
1055;DHT22;516;51.482;7.120;2024-01-25T05:37:46;22.20;1.00
1055;DHT22;516;51.482;7.120;2024-01-25T05:40:12;22.20;1.00
1055;DHT22;516;51.482;7.120;2024-01-25T05:42:38;22.20;1.00
1055;DHT22;516;51.482;7.120;2024-01-25T05:45:05;22.20;1.00
1055;DHT22;516;51.482;7.120;2024-01-25T05:47:31;22.20;1.00
1055;DHT22;516;51.482;7.120;2024-01-25T05:49:57;22.20;1.00
1055;DHT22;516;51.482;7.120;2024-01-25T05:52:23;22.20;1.00
1055;DHT22;516;51.482;7.120;2024-01-25T05:54:50;22.20;1.00
1055;DHT22;516;51.482;7.120;2024-01-25T05:57:15;22.20;1.00
1055;DHT22;516;51.482;7.120;2024-01-25T05:59:42;22.10;1.00
1055;DHT22;516;51.482;7.120;2024-01-25T06:02:08;22.10;1.00
1055;DHT22;516;51.482;7.120;2024-01-25T06:04:34;22.10;1.00
1055;DHT22;516;51.482;7.120;2024-01-25T06:07:00;22.10;1.00
1055;DHT22;516;51.482;7.120;2024-01-25T06:09:26;22.20;1.00
1055;DHT22;516;51.482;7.120;2024-01-25T06:11:52;22.10;1.00
1055;DHT22;516;51.482;7.120;2024-01-25T06:14:18;22.10;1.00
1055;DHT22;516;51.482;7.120;2024-01-25T06:16:44;22.10;1.00
1055;DHT22;516;51.482;7.120;2024-01-25T06:19:10;22.10;1.00
1055;DHT22;516;51.482;7.120;2024-01-25T06:21:36;22.10;1.00
1055;DHT22;516;51.482;7.120;2024-01-25T06:24:04;22.10;1.00
1055;DHT22;516;51.482;7.120;2024-01-25T06:26:30;22.10;1.00
1055;DHT22;516;51.482;7.120;2024-01-25T06:28:56;22.10;1.00
1055;DHT22;516;51.482;7.120;2024-01-25T06:31:25;22.10;1.00
1055;DHT22;516;51.482;7.120;2024-01-25T06:33:51;22.10;1.00
1055;DHT22;516;51.482;7.120;2024-01-25T06:36:21;22.10;1.00
1055;DHT22;516;51.482;7.120;2024-01-25T06:38:47;22.10;1.00
1055;DHT22;516;51.482;7.120;2024-01-25T06:41:13;22.10;1.00
1055;DHT22;516;51.482;7.120;2024-01-25T06:43:39;22.10;1.00
1055;DHT22;516;51.482;7.120;2024-01-25T06:46:06;22.10;1.00
1055;DHT22;516;51.482;7.120;2024-01-25T06:48:32;22.10;1.00
1055;DHT22;516;51.482;7.120;2024-01-25T06:50:58;22.10;1.00
1055;DHT22;516;51.482;7.120;2024-01-25T06:53:24;22.50;1.00
1055;DHT22;516;51.482;7.120;2024-01-25T06:55:50;22.90;1.00
1055;DHT22;516;51.482;7.120;2024-01-25T06:58:15;23.20;1.00
1055;DHT22;516;51.482;7.120;2024-01-25T07:00:41;23.40;1.00
1055;DHT22;516;51.482;7.120;2024-01-25T07:03:08;23.50;1.00
1055;DHT22;516;51.482;7.120;2024-01-25T07:05:34;23.50;1.00
1055;DHT22;516;51.482;7.120;2024-01-25T07:08:01;23.50;1.00
1055;DHT22;516;51.482;7.120;2024-01-25T07:10:27;23.40;1.00
1055;DHT22;516;51.482;7.120;2024-01-25T07:12:53;23.10;1.00
1055;DHT22;516;51.482;7.120;2024-01-25T07:15:19;22.90;1.00
1055;DHT22;516;51.482;7.120;2024-01-25T07:17:45;22.80;1.00
1055;DHT22;516;51.482;7.120;2024-01-25T07:20:12;22.70;1.00
1055;DHT22;516;51.482;7.120;2024-01-25T07:22:39;22.70;1.00
1055;DHT22;516;51.482;7.120;2024-01-25T07:25:05;22.60;1.00
1055;DHT22;516;51.482;7.120;2024-01-25T07:27:31;22.60;1.00
1055;DHT22;516;51.482;7.120;2024-01-25T07:29:57;22.50;1.00
1055;DHT22;516;51.482;7.120;2024-01-25T07:32:22;22.50;1.00
1055;DHT22;516;51.482;7.120;2024-01-25T07:34:50;22.50;1.00
1055;DHT22;516;51.482;7.120;2024-01-25T07:37:16;22.50;1.00
1055;DHT22;516;51.482;7.120;2024-01-25T07:39:44;22.50;1.00
1055;DHT22;516;51.482;7.120;2024-01-25T07:42:10;22.50;1.00
1055;DHT22;516;51.482;7.120;2024-01-25T07:44:36;22.60;1.00
1055;DHT22;516;51.482;7.120;2024-01-25T07:47:02;22.60;1.00
1055;DHT22;516;51.482;7.120;2024-01-25T07:49:29;22.50;1.00
1055;DHT22;516;51.482;7.120;2024-01-25T07:51:55;22.60;1.00
1055;DHT22;516;51.482;7.120;2024-01-25T07:54:22;22.60;1.00
1055;DHT22;516;51.482;7.120;2024-01-25T07:56:48;22.50;1.00
1055;DHT22;516;51.482;7.120;2024-01-25T07:59:14;22.50;1.00
1055;DHT22;516;51.482;7.120;2024-01-25T08:01:40;22.60;1.00
1055;DHT22;516;51.482;7.120;2024-01-25T08:04:05;22.60;1.00
1055;DHT22;516;51.482;7.120;2024-01-25T08:06:31;22.60;1.00
1055;DHT22;516;51.482;7.120;2024-01-25T08:08:57;22.60;1.00
1055;DHT22;516;51.482;7.120;2024-01-25T08:11:23;22.60;1.00
1055;DHT22;516;51.482;7.120;2024-01-25T08:13:49;22.60;1.00
1055;DHT22;516;51.482;7.120;2024-01-25T08:16:15;22.60;1.00
1055;DHT22;516;51.482;7.120;2024-01-25T08:18:50;22.60;1.00
1055;DHT22;516;51.482;7.120;2024-01-25T08:21:16;22.60;1.00
1055;DHT22;516;51.482;7.120;2024-01-25T08:23:42;22.60;1.00
1055;DHT22;516;51.482;7.120;2024-01-25T08:26:08;22.60;1.00
1055;DHT22;516;51.482;7.120;2024-01-25T08:28:35;22.60;1.00
1055;DHT22;516;51.482;7.120;2024-01-25T08:31:02;22.60;1.00
1055;DHT22;516;51.482;7.120;2024-01-25T08:33:27;22.60;1.00
1055;DHT22;516;51.482;7.120;2024-01-25T08:35:53;22.60;1.00
1055;DHT22;516;51.482;7.120;2024-01-25T08:38:19;22.60;1.00
1055;DHT22;516;51.482;7.120;2024-01-25T08:40:44;22.60;1.00
1055;DHT22;516;51.482;7.120;2024-01-25T08:43:10;22.60;1.00
1055;DHT22;516;51.482;7.120;2024-01-25T08:45:36;22.70;1.00
1055;DHT22;516;51.482;7.120;2024-01-25T08:48:03;22.70;1.00
1055;DHT22;516;51.482;7.120;2024-01-25T08:50:29;22.70;1.00
1055;DHT22;516;51.482;7.120;2024-01-25T08:52:55;22.70;1.00
1055;DHT22;516;51.482;7.120;2024-01-25T08:55:21;22.70;1.00
1055;DHT22;516;51.482;7.120;2024-01-25T08:57:47;22.70;1.00
1055;DHT22;516;51.482;7.120;2024-01-25T09:00:13;22.70;1.00
1055;DHT22;516;51.482;7.120;2024-01-25T09:02:39;22.70;1.00
1055;DHT22;516;51.482;7.120;2024-01-25T09:05:06;22.70;1.00
1055;DHT22;516;51.482;7.120;2024-01-25T09:07:31;22.80;1.00
1055;DHT22;516;51.482;7.120;2024-01-25T09:09:57;22.80;1.00
1055;DHT22;516;51.482;7.120;2024-01-25T09:12:23;22.90;1.00
1055;DHT22;516;51.482;7.120;2024-01-25T09:14:49;22.90;1.00
1055;DHT22;516;51.482;7.120;2024-01-25T09:17:14;23.00;1.00
1055;DHT22;516;51.482;7.120;2024-01-25T09:19:41;23.10;1.00
1055;DHT22;516;51.482;7.120;2024-01-25T09:22:07;23.10;1.00
1055;DHT22;516;51.482;7.120;2024-01-25T09:24:35;23.20;1.00
1055;DHT22;516;51.482;7.120;2024-01-25T09:27:02;23.20;1.00
1055;DHT22;516;51.482;7.120;2024-01-25T09:29:28;23.20;1.00
1055;DHT22;516;51.482;7.120;2024-01-25T09:31:54;23.20;1.00
1055;DHT22;516;51.482;7.120;2024-01-25T09:34:20;23.20;1.00
1055;DHT22;516;51.482;7.120;2024-01-25T09:36:46;23.20;1.00
1055;DHT22;516;51.482;7.120;2024-01-25T09:39:12;23.30;1.00
1055;DHT22;516;51.482;7.120;2024-01-25T09:41:40;23.30;1.00
1055;DHT22;516;51.482;7.120;2024-01-25T09:44:09;23.40;1.00
1055;DHT22;516;51.482;7.120;2024-01-25T09:46:35;23.40;1.00
1055;DHT22;516;51.482;7.120;2024-01-25T09:49:02;23.60;1.00
1055;DHT22;516;51.482;7.120;2024-01-25T09:51:31;23.80;1.00
1055;DHT22;516;51.482;7.120;2024-01-25T09:54:00;24.10;1.00
1055;DHT22;516;51.482;7.120;2024-01-25T09:56:27;24.30;1.00
1055;DHT22;516;51.482;7.120;2024-01-25T09:58:56;24.50;1.00
1055;DHT22;516;51.482;7.120;2024-01-25T10:01:22;24.50;1.00
1055;DHT22;516;51.482;7.120;2024-01-25T10:03:48;24.40;1.00
1055;DHT22;516;51.482;7.120;2024-01-25T10:06:15;24.20;1.00
1055;DHT22;516;51.482;7.120;2024-01-25T10:08:41;24.10;1.00
1055;DHT22;516;51.482;7.120;2024-01-25T10:11:07;24.00;1.00
1055;DHT22;516;51.482;7.120;2024-01-25T10:13:44;23.80;1.00
1055;DHT22;516;51.482;7.120;2024-01-25T10:16:17;23.80;1.00
1055;DHT22;516;51.482;7.120;2024-01-25T10:18:45;23.90;1.00
1055;DHT22;516;51.482;7.120;2024-01-25T10:21:11;24.20;1.00
1055;DHT22;516;51.482;7.120;2024-01-25T10:23:40;24.30;1.00
1055;DHT22;516;51.482;7.120;2024-01-25T10:26:08;24.40;1.00
1055;DHT22;516;51.482;7.120;2024-01-25T10:28:34;24.50;1.00
1055;DHT22;516;51.482;7.120;2024-01-25T10:31:01;24.40;1.00
1055;DHT22;516;51.482;7.120;2024-01-25T10:33:28;24.30;1.00
1055;DHT22;516;51.482;7.120;2024-01-25T10:35:58;24.10;1.00
1055;DHT22;516;51.482;7.120;2024-01-25T10:38:31;24.00;1.00
1055;DHT22;516;51.482;7.120;2024-01-25T10:41:00;23.80;1.00
1055;DHT22;516;51.482;7.120;2024-01-25T10:43:27;23.70;1.00
1055;DHT22;516;51.482;7.120;2024-01-25T10:45:53;23.50;1.00
1055;DHT22;516;51.482;7.120;2024-01-25T10:48:21;23.40;1.00
1055;DHT22;516;51.482;7.120;2024-01-25T10:50:48;23.40;1.00
1055;DHT22;516;51.482;7.120;2024-01-25T10:53:15;23.50;1.00
1055;DHT22;516;51.482;7.120;2024-01-25T10:55:42;24.10;1.00
1055;DHT22;516;51.482;7.120;2024-01-25T10:58:08;24.40;1.00
1055;DHT22;516;51.482;7.120;2024-01-25T11:00:36;24.70;1.00
1055;DHT22;516;51.482;7.120;2024-01-25T11:03:03;24.90;1.00
1055;DHT22;516;51.482;7.120;2024-01-25T11:05:30;24.80;1.00
1055;DHT22;516;51.482;7.120;2024-01-25T11:07:56;24.60;1.00
1055;DHT22;516;51.482;7.120;2024-01-25T11:10:25;24.30;1.00
1055;DHT22;516;51.482;7.120;2024-01-25T11:12:58;24.10;1.00
1055;DHT22;516;51.482;7.120;2024-01-25T11:15:34;23.90;1.00
1055;DHT22;516;51.482;7.120;2024-01-25T11:18:02;23.80;1.00
1055;DHT22;516;51.482;7.120;2024-01-25T11:20:29;23.70;1.00
1055;DHT22;516;51.482;7.120;2024-01-25T11:23:05;23.70;1.00
1055;DHT22;516;51.482;7.120;2024-01-25T11:25:35;23.70;1.00
1055;DHT22;516;51.482;7.120;2024-01-25T11:28:02;23.70;1.00
1055;DHT22;516;51.482;7.120;2024-01-25T11:30:30;23.70;1.00
1055;DHT22;516;51.482;7.120;2024-01-25T11:32:56;23.70;1.00
1055;DHT22;516;51.482;7.120;2024-01-25T11:35:22;23.70;1.00
1055;DHT22;516;51.482;7.120;2024-01-25T11:37:49;23.70;1.00
1055;DHT22;516;51.482;7.120;2024-01-25T11:40:15;23.70;1.00
1055;DHT22;516;51.482;7.120;2024-01-25T11:42:43;23.70;1.00
1055;DHT22;516;51.482;7.120;2024-01-25T11:45:11;23.60;1.00
1055;DHT22;516;51.482;7.120;2024-01-25T11:47:38;23.60;1.00
1055;DHT22;516;51.482;7.120;2024-01-25T11:50:09;23.50;1.00
1055;DHT22;516;51.482;7.120;2024-01-25T11:52:35;23.50;1.00
1055;DHT22;516;51.482;7.120;2024-01-25T11:55:05;23.50;1.00
1055;DHT22;516;51.482;7.120;2024-01-25T11:57:34;23.50;1.00
1055;DHT22;516;51.482;7.120;2024-01-25T12:00:01;23.40;1.00
1055;DHT22;516;51.482;7.120;2024-01-25T12:02:27;23.40;1.00
1055;DHT22;516;51.482;7.120;2024-01-25T12:04:56;23.30;1.00
1055;DHT22;516;51.482;7.120;2024-01-25T12:07:22;23.30;1.00
1055;DHT22;516;51.482;7.120;2024-01-25T12:10:06;23.20;1.00
1055;DHT22;516;51.482;7.120;2024-01-25T12:12:32;23.20;1.00
1055;DHT22;516;51.482;7.120;2024-01-25T12:14:59;23.10;1.00
1055;DHT22;516;51.482;7.120;2024-01-25T12:17:27;23.10;1.00
1055;DHT22;516;51.482;7.120;2024-01-25T12:19:58;23.00;1.00
1055;DHT22;516;51.482;7.120;2024-01-25T12:22:26;23.00;1.00
1055;DHT22;516;51.482;7.120;2024-01-25T12:24:59;23.00;1.00
1055;DHT22;516;51.482;7.120;2024-01-25T12:27:26;23.00;1.00
1055;DHT22;516;51.482;7.120;2024-01-25T12:29:53;22.90;1.00
1055;DHT22;516;51.482;7.120;2024-01-25T12:32:22;22.90;1.00
1055;DHT22;516;51.482;7.120;2024-01-25T12:34:58;22.90;1.00
1055;DHT22;516;51.482;7.120;2024-01-25T12:37:23;22.90;1.00
1055;DHT22;516;51.482;7.120;2024-01-25T12:39:54;22.90;1.00
1055;DHT22;516;51.482;7.120;2024-01-25T12:42:20;22.90;1.00
1055;DHT22;516;51.482;7.120;2024-01-25T12:44:46;22.90;1.00
1055;DHT22;516;51.482;7.120;2024-01-25T12:47:12;22.90;1.00
1055;DHT22;516;51.482;7.120;2024-01-25T12:49:41;22.90;1.00
1055;DHT22;516;51.482;7.120;2024-01-25T12:52:14;22.90;1.00
1055;DHT22;516;51.482;7.120;2024-01-25T12:54:40;22.90;1.00
1055;DHT22;516;51.482;7.120;2024-01-25T12:57:07;22.90;1.00
1055;DHT22;516;51.482;7.120;2024-01-25T12:59:36;22.90;1.00
1055;DHT22;516;51.482;7.120;2024-01-25T13:02:02;22.90;1.00
1055;DHT22;516;51.482;7.120;2024-01-25T13:04:28;22.80;1.00
1055;DHT22;516;51.482;7.120;2024-01-25T13:06:55;22.90;1.00
1055;DHT22;516;51.482;7.120;2024-01-25T13:09:24;22.80;1.00
1055;DHT22;516;51.482;7.120;2024-01-25T13:11:50;22.80;1.00
1055;DHT22;516;51.482;7.120;2024-01-25T13:14:17;22.90;1.00
1055;DHT22;516;51.482;7.120;2024-01-25T13:16:43;22.90;1.00
1055;DHT22;516;51.482;7.120;2024-01-25T13:19:09;22.90;1.00
1055;DHT22;516;51.482;7.120;2024-01-25T13:21:34;23.00;1.00
1055;DHT22;516;51.482;7.120;2024-01-25T13:24:00;23.00;1.00
1055;DHT22;516;51.482;7.120;2024-01-25T13:26:26;23.10;1.00
1055;DHT22;516;51.482;7.120;2024-01-25T13:28:52;23.10;1.00
1055;DHT22;516;51.482;7.120;2024-01-25T13:31:18;23.10;1.00
1055;DHT22;516;51.482;7.120;2024-01-25T13:33:44;23.10;1.00
1055;DHT22;516;51.482;7.120;2024-01-25T13:36:11;23.00;1.00
1055;DHT22;516;51.482;7.120;2024-01-25T13:38:39;23.00;1.00
1055;DHT22;516;51.482;7.120;2024-01-25T13:41:05;23.00;1.00
1055;DHT22;516;51.482;7.120;2024-01-25T13:43:30;22.90;1.00
1055;DHT22;516;51.482;7.120;2024-01-25T13:45:56;22.60;1.00
1055;DHT22;516;51.482;7.120;2024-01-25T13:48:22;22.60;1.00
1055;DHT22;516;51.482;7.120;2024-01-25T13:50:47;22.60;1.00
1055;DHT22;516;51.482;7.120;2024-01-25T13:53:13;22.70;1.00
1055;DHT22;516;51.482;7.120;2024-01-25T13:55:39;22.70;1.00
1055;DHT22;516;51.482;7.120;2024-01-25T13:58:05;22.70;1.00
1055;DHT22;516;51.482;7.120;2024-01-25T14:00:30;22.70;1.00
1055;DHT22;516;51.482;7.120;2024-01-25T14:02:56;22.70;1.00
1055;DHT22;516;51.482;7.120;2024-01-25T14:05:21;22.70;1.00
1055;DHT22;516;51.482;7.120;2024-01-25T14:07:47;22.80;1.00
1055;DHT22;516;51.482;7.120;2024-01-25T14:10:13;22.80;1.00
1055;DHT22;516;51.482;7.120;2024-01-25T14:12:39;22.70;1.00
1055;DHT22;516;51.482;7.120;2024-01-25T14:15:04;22.70;1.00
1055;DHT22;516;51.482;7.120;2024-01-25T14:17:30;22.70;1.00
1055;DHT22;516;51.482;7.120;2024-01-25T14:19:56;22.70;1.00
1055;DHT22;516;51.482;7.120;2024-01-25T14:22:21;22.70;1.00
1055;DHT22;516;51.482;7.120;2024-01-25T14:24:47;22.70;1.00
1055;DHT22;516;51.482;7.120;2024-01-25T14:27:13;22.70;1.00
1055;DHT22;516;51.482;7.120;2024-01-25T14:29:39;22.70;1.00
1055;DHT22;516;51.482;7.120;2024-01-25T14:32:04;22.70;1.00
1055;DHT22;516;51.482;7.120;2024-01-25T14:34:30;22.70;1.00
1055;DHT22;516;51.482;7.120;2024-01-25T14:36:56;22.70;1.00
1055;DHT22;516;51.482;7.120;2024-01-25T14:39:21;22.70;1.00
1055;DHT22;516;51.482;7.120;2024-01-25T14:41:47;22.60;1.00
1055;DHT22;516;51.482;7.120;2024-01-25T14:44:13;22.60;1.00
1055;DHT22;516;51.482;7.120;2024-01-25T14:46:38;22.60;1.00
1055;DHT22;516;51.482;7.120;2024-01-25T14:49:05;22.60;1.00
1055;DHT22;516;51.482;7.120;2024-01-25T14:51:30;22.60;1.00
1055;DHT22;516;51.482;7.120;2024-01-25T14:53:56;22.60;1.00
1055;DHT22;516;51.482;7.120;2024-01-25T14:56:22;22.60;1.00
1055;DHT22;516;51.482;7.120;2024-01-25T14:58:48;22.60;1.00
1055;DHT22;516;51.482;7.120;2024-01-25T15:01:14;22.60;1.00
1055;DHT22;516;51.482;7.120;2024-01-25T15:03:43;22.60;1.00
1055;DHT22;516;51.482;7.120;2024-01-25T15:06:09;22.60;1.00
1055;DHT22;516;51.482;7.120;2024-01-25T15:08:35;22.60;1.00
1055;DHT22;516;51.482;7.120;2024-01-25T15:11:01;22.60;1.00
1055;DHT22;516;51.482;7.120;2024-01-25T15:13:26;22.60;1.00
1055;DHT22;516;51.482;7.120;2024-01-25T15:15:52;22.60;1.00
1055;DHT22;516;51.482;7.120;2024-01-25T15:18:18;22.60;1.00
1055;DHT22;516;51.482;7.120;2024-01-25T15:20:43;22.50;1.00
1055;DHT22;516;51.482;7.120;2024-01-25T15:23:09;22.50;1.00
1055;DHT22;516;51.482;7.120;2024-01-25T15:25:35;22.60;1.00
1055;DHT22;516;51.482;7.120;2024-01-25T15:28:00;22.50;1.00
1055;DHT22;516;51.482;7.120;2024-01-25T15:30:26;22.50;1.00
1055;DHT22;516;51.482;7.120;2024-01-25T15:32:52;22.50;1.00
1055;DHT22;516;51.482;7.120;2024-01-25T15:35:17;22.50;1.00
1055;DHT22;516;51.482;7.120;2024-01-25T15:37:43;22.50;1.00
1055;DHT22;516;51.482;7.120;2024-01-25T15:40:10;22.50;1.00
1055;DHT22;516;51.482;7.120;2024-01-25T15:42:38;22.50;1.00
1055;DHT22;516;51.482;7.120;2024-01-25T15:45:05;22.50;1.00
1055;DHT22;516;51.482;7.120;2024-01-25T15:47:32;22.50;1.00
1055;DHT22;516;51.482;7.120;2024-01-25T15:49:59;22.40;1.00
1055;DHT22;516;51.482;7.120;2024-01-25T15:52:24;22.40;1.00
1055;DHT22;516;51.482;7.120;2024-01-25T15:54:50;22.40;1.00
1055;DHT22;516;51.482;7.120;2024-01-25T15:57:16;22.40;1.00
1055;DHT22;516;51.482;7.120;2024-01-25T15:59:41;22.40;1.00
1055;DHT22;516;51.482;7.120;2024-01-25T16:02:07;22.40;1.00
1055;DHT22;516;51.482;7.120;2024-01-25T16:04:33;22.40;1.00
1055;DHT22;516;51.482;7.120;2024-01-25T16:06:59;22.40;1.00
1055;DHT22;516;51.482;7.120;2024-01-25T16:09:25;22.40;1.00
1055;DHT22;516;51.482;7.120;2024-01-25T16:11:51;22.40;1.00
1055;DHT22;516;51.482;7.120;2024-01-25T16:14:16;22.30;1.00
1055;DHT22;516;51.482;7.120;2024-01-25T16:16:42;22.20;1.00
1055;DHT22;516;51.482;7.120;2024-01-25T16:19:08;22.10;1.00
1055;DHT22;516;51.482;7.120;2024-01-25T16:21:34;22.10;1.00
1055;DHT22;516;51.482;7.120;2024-01-25T16:23:59;22.10;1.00
1055;DHT22;516;51.482;7.120;2024-01-25T16:26:25;22.20;1.00
1055;DHT22;516;51.482;7.120;2024-01-25T16:28:51;22.20;1.00